Terminal Aerodrome Forecast
Issued by NWS Wilmington, OH

Current Version | Previous Version | Text Only | Print | Product List | Glossary Off
Versions: 1 2 3 4 5 6 7 8 9 10 11 12 13 14 15 16 17 18 19 20 21 22 23 24 25

301
FTUS41 KILN 072335
TAFCVG
TAF
KCVG 072335Z 0800/0906 28007KT P6SM OVC100
     FM081200 28010KT P6SM FEW025 SCT100
     FM081500 28012G22KT P6SM BKN035
     FM090300 28010G18KT P6SM OVC022=

USA.gov is the U.S. government's official web portal to all federal, state and local government web resources and services.